Peruibe, Brazil
Current Conditions -  °F | °C
As of 11:00 PM on Thursday 18 Dec 2014 (Local Time) from SBSP Reporting Station
Clear Clear  
Wind Chill: 68°   Ceiling: Unl
Heat Index: 68°   Visibility: 6mi
Dew Point: 59°   Wind: 6mph
Humidity: 73%   Direction: 140°SE
Pressure: 30"   Gusts: NA
Location:  24.3°S, 46.99°W
Report Text: SBSP 190100Z 14005KT CAVOK 20/15 Q1016
Loading
Personal Weather Stations






























Interactive Weather Map New forecast layout! Learn more

10-Day Weather Forecast

Advertisements
Track Severe Weather on mobile